Time;durP1;ratioP1;P1;durP2;ratioP2;P2;SDS_P1;SDS_P2;PMS_P1;PMS_P2;Temp;Humidity;BMP_temperature;BMP_pressure;BME280_temperature;BME280_humidity;BME280_pressure;Samples;Min_cycle;Max_cycle;Signal;HPM_P1;HPM_P2
2024/03/28 00:01:09;;;;;;;3.10;2.80;;;9.50;99.90;;;;;;5024401;28;20250;-68
2024/03/28 00:03:35;;;;;;;4.10;2.80;;;9.50;99.90;;;;;;5028629;28;20210;-69
2024/03/28 00:06:01;;;;;;;6.20;2.60;;;9.60;99.90;;;;;;5020275;28;20547;-68
2024/03/28 00:08:28;;;;;;;3.47;2.53;;;9.60;99.90;;;;;;5022770;28;20176;-69
2024/03/28 00:10:54;;;;;;;3.00;2.70;;;9.60;99.90;;;;;;5027006;28;20788;-68
2024/03/28 00:13:22;;;;;;;3.40;2.60;;;9.60;99.90;;;;;;5027111;28;20502;-68
2024/03/28 00:16:02;;;;;;;2.80;2.50;;;9.60;99.90;;;;;;5025326;28;20435;-69
2024/03/28 00:18:31;;;;;;;2.60;2.40;;;9.60;99.90;;;;;;5020826;28;20506;-68
2024/03/28 00:21:01;;;;;;;4.03;2.10;;;9.50;99.90;;;;;;5026048;28;20461;-68
2024/03/28 00:23:27;;;;;;;4.23;3.80;;;9.50;99.90;;;;;;5028113;28;20493;-68
2024/03/28 00:25:53;;;;;;;4.70;3.00;;;9.50;99.90;;;;;;5027124;28;20779;-69
2024/03/28 00:28:18;;;;;;;3.20;2.47;;;9.50;99.90;;;;;;5024228;28;20183;-68
2024/03/28 00:30:44;;;;;;;2.90;2.47;;;9.40;99.90;;;;;;5031613;28;20213;-68
2024/03/28 00:33:09;;;;;;;3.70;2.80;;;9.40;99.90;;;;;;5027057;28;20188;-68
2024/03/28 00:35:35;;;;;;;2.77;2.30;;;9.40;99.90;;;;;;5024765;28;20213;-68
2024/03/28 00:38:01;;;;;;;3.20;2.80;;;9.40;99.90;;;;;;5027875;28;20888;-68
2024/03/28 00:40:26;;;;;;;2.80;2.50;;;9.40;99.90;;;;;;5030108;28;20189;-68
2024/03/28 00:42:52;;;;;;;3.87;2.40;;;9.40;99.90;;;;;;5028023;28;20255;-68
2024/03/28 00:45:18;;;;;;;4.70;2.87;;;9.30;99.90;;;;;;5026587;28;20222;-69
2024/03/28 00:47:44;;;;;;;4.17;2.60;;;9.30;99.90;;;;;;5020243;28;20184;-68
2024/03/28 00:50:09;;;;;;;3.43;3.07;;;9.30;99.90;;;;;;5027096;28;20437;-69
2024/03/28 00:52:35;;;;;;;4.00;2.73;;;9.30;99.90;;;;;;5027721;28;20219;-68
2024/03/28 00:55:00;;;;;;;2.90;2.50;;;9.30;99.90;;;;;;5028048;28;20205;-68
2024/03/28 00:57:26;;;;;;;3.93;2.80;;;9.30;99.90;;;;;;5024557;28;20187;-68
2024/03/28 00:59:51;;;;;;;4.00;3.00;;;9.20;99.90;;;;;;5030280;28;20197;-67
2024/03/28 01:02:17;;;;;;;2.93;2.60;;;9.20;99.90;;;;;;5027480;28;20200;-68
2024/03/28 01:04:42;;;;;;;3.97;3.17;;;9.20;99.90;;;;;;5029036;28;20307;-68
2024/03/28 01:07:08;;;;;;;4.23;3.40;;;9.20;99.90;;;;;;5025429;28;20185;-68
2024/03/28 01:09:34;;;;;;;4.10;2.90;;;9.20;99.90;;;;;;5030027;28;20696;-68
2024/03/28 01:11:59;;;;;;;6.10;3.17;;;9.10;99.90;;;;;;5029168;28;20195;-67
2024/03/28 01:14:25;;;;;;;3.60;3.00;;;9.10;99.90;;;;;;5031964;28;20204;-69
2024/03/28 01:16:50;;;;;;;3.70;2.50;;;9.10;99.90;;;;;;5025856;28;20667;-69
2024/03/28 01:19:16;;;;;;;4.50;3.07;;;9.10;99.90;;;;;;5030146;28;20246;-69
2024/03/28 01:21:41;;;;;;;4.00;2.77;;;9.10;99.90;;;;;;5024632;28;20211;-69
2024/03/28 01:24:07;;;;;;;3.20;2.80;;;9.10;99.90;;;;;;5030894;28;20210;-69
2024/03/28 01:26:32;;;;;;;4.70;3.00;;;9.10;99.90;;;;;;5028674;28;20242;-69
2024/03/28 01:28:58;;;;;;;4.63;3.10;;;9.00;99.90;;;;;;5028502;28;20695;-68
2024/03/28 01:31:24;;;;;;;3.67;3.07;;;9.00;99.90;;;;;;5025903;28;20188;-69
2024/03/28 01:33:49;;;;;;;3.33;2.97;;;9.00;99.90;;;;;;5035837;28;20194;-70
2024/03/28 01:36:15;;;;;;;5.87;3.70;;;8.90;99.90;;;;;;5025018;28;20189;-69
2024/03/28 01:38:40;;;;;;;4.27;3.33;;;8.90;99.90;;;;;;5022186;28;20220;-69
2024/03/28 01:41:06;;;;;;;4.60;3.47;;;8.90;99.90;;;;;;5027065;28;20212;-69
2024/03/28 01:43:32;;;;;;;3.57;3.27;;;8.90;99.90;;;;;;5030191;28;20217;-69
2024/03/28 01:45:58;;;;;;;3.30;2.63;;;8.90;99.90;;;;;;5028913;28;20201;-69
2024/03/28 01:48:24;;;;;;;4.00;3.17;;;8.90;99.90;;;;;;5024923;28;20172;-69
2024/03/28 01:50:50;;;;;;;3.60;2.77;;;8.90;99.90;;;;;;5026993;28;20424;-69
2024/03/28 01:53:15;;;;;;;4.33;3.30;;;8.80;99.90;;;;;;5024151;28;20191;-69
2024/03/28 01:55:42;;;;;;;3.60;2.90;;;8.80;99.90;;;;;;5021289;28;20212;-69
2024/03/28 01:58:09;;;;;;;4.30;3.13;;;8.80;99.90;;;;;;5025068;28;20189;-69
2024/03/28 02:00:35;;;;;;;3.40;2.97;;;8.80;99.90;;;;;;5025251;28;20463;-69
2024/03/28 02:03:01;;;;;;;3.10;2.67;;;8.80;99.90;;;;;;5031627;28;20419;-69
2024/03/28 02:05:27;;;;;;;4.50;2.63;;;8.70;99.90;;;;;;5021002;28;20459;-69
2024/03/28 02:07:52;;;;;;;3.97;3.30;;;8.70;99.90;;;;;;5021221;28;20173;-69
2024/03/28 02:10:18;;;;;;;3.90;2.67;;;8.70;99.90;;;;;;5020801;28;20430;-69
2024/03/28 02:12:44;;;;;;;3.43;2.93;;;8.70;99.90;;;;;;5030325;28;20187;-67
2024/03/28 02:15:10;;;;;;;3.83;3.10;;;8.70;99.90;;;;;;5024755;28;20231;-67
2024/03/28 02:17:48;;;;;;;4.20;3.20;;;8.70;99.90;;;;;;5027781;28;20960;-68
2024/03/28 02:20:15;;;;;;;3.33;3.00;;;8.70;99.90;;;;;;5029734;28;20211;-68
2024/03/28 02:22:41;;;;;;;3.43;2.60;;;8.70;99.90;;;;;;5025529;28;20916;-68
2024/03/28 02:25:07;;;;;;;5.10;3.03;;;8.70;99.90;;;;;;5021250;28;20499;-68
2024/03/28 02:27:34;;;;;;;4.80;2.83;;;8.70;99.90;;;;;;5024182;28;20658;-68
2024/03/28 02:30:00;;;;;;;3.87;3.03;;;8.70;99.90;;;;;;5029175;28;20414;-68
2024/03/28 02:32:26;;;;;;;4.23;3.40;;;8.70;99.90;;;;;;5025475;28;20544;-68
2024/03/28 02:34:52;;;;;;;3.70;2.77;;;8.70;99.90;;;;;;5028214;28;20537;-68
2024/03/28 02:37:18;;;;;;;4.83;2.63;;;8.70;99.90;;;;;;5022582;28;20422;-68
2024/03/28 02:39:44;;;;;;;3.73;2.80;;;8.70;99.90;;;;;;5026774;28;20423;-68
2024/03/28 02:42:10;;;;;;;4.00;2.83;;;8.80;99.90;;;;;;5026646;28;20176;-68
2024/03/28 02:44:35;;;;;;;4.50;2.83;;;8.70;99.90;;;;;;5028507;28;20196;-68
2024/03/28 02:47:01;;;;;;;3.70;2.70;;;8.70;99.90;;;;;;5030637;28;20289;-68
2024/03/28 02:49:26;;;;;;;5.00;2.70;;;8.70;99.90;;;;;;5022601;28;20198;-68
2024/03/28 02:51:52;;;;;;;3.90;2.40;;;8.60;99.90;;;;;;5026543;28;20241;-68
2024/03/28 02:54:17;;;;;;;4.93;3.13;;;8.60;99.90;;;;;;5029682;28;20218;-68
2024/03/28 02:56:43;;;;;;;3.40;2.73;;;8.60;99.90;;;;;;5029173;28;20281;-68
2024/03/28 02:59:08;;;;;;;3.20;2.43;;;8.60;99.90;;;;;;5024621;28;20188;-68
2024/03/28 03:01:34;;;;;;;3.73;2.50;;;8.50;99.90;;;;;;5026988;28;20204;-68
2024/03/28 03:03:59;;;;;;;3.20;2.60;;;8.50;99.90;;;;;;5028535;28;20205;-68
2024/03/28 03:06:25;;;;;;;2.90;2.47;;;8.50;99.90;;;;;;5028813;28;20330;-68
2024/03/28 03:08:51;;;;;;;7.63;2.50;;;8.50;99.90;;;;;;5020261;28;20191;-68
2024/03/28 03:11:16;;;;;;;3.80;2.87;;;8.50;99.90;;;;;;5027778;28;20185;-68
2024/03/28 03:13:42;;;;;;;2.93;2.60;;;8.40;99.90;;;;;;5020845;28;20561;-68
2024/03/28 03:16:07;;;;;;;4.10;2.63;;;8.30;99.90;;;;;;5030720;28;20575;-68
2024/03/28 03:18:34;;;;;;;3.10;2.70;;;8.40;99.90;;;;;;5024832;28;20203;-68
2024/03/28 03:21:03;;;;;;;4.60;2.43;;;8.30;99.90;;;;;;5030541;28;20196;-69
2024/03/28 03:23:37;;;;;;;3.03;2.57;;;8.30;99.90;;;;;;5023774;28;20422;-68
2024/03/28 03:26:12;;;;;;;3.00;2.20;;;8.30;99.90;;;;;;5027754;28;20502;-68
2024/03/28 03:36:54;;;;;;;2.60;2.20;;;8.20;99.90;;;;;;5025600;28;20410;-68
2024/03/28 03:39:19;;;;;;;3.47;2.20;;;8.20;99.90;;;;;;5021904;28;20442;-68
2024/03/28 03:41:45;;;;;;;3.27;2.20;;;8.10;99.90;;;;;;5030709;28;20212;-68
2024/03/28 03:44:10;;;;;;;2.93;2.50;;;8.10;99.90;;;;;;5020182;28;20254;-68
2024/03/28 03:46:36;;;;;;;3.33;2.23;;;8.10;99.90;;;;;;5019384;28;20260;-68
2024/03/28 03:49:01;;;;;;;3.00;2.60;;;8.10;99.90;;;;;;5017457;28;20717;-69
2024/03/28 03:51:27;;;;;;;3.00;2.27;;;8.10;99.90;;;;;;5020871;28;20196;-68
2024/03/28 03:53:52;;;;;;;4.03;2.40;;;8.10;99.90;;;;;;5013827;28;20184;-67
2024/03/28 03:56:18;;;;;;;3.13;2.33;;;8.10;99.90;;;;;;5017844;28;20184;-67
2024/03/28 03:58:43;;;;;;;3.03;2.33;;;8.10;99.90;;;;;;5021073;28;20196;-69
2024/03/28 04:01:09;;;;;;;4.03;2.50;;;8.10;99.90;;;;;;5021773;28;20238;-70
2024/03/28 04:03:35;;;;;;;4.60;2.03;;;8.00;99.90;;;;;;5017340;28;20185;-67
2024/03/28 04:06:01;;;;;;;3.10;2.27;;;8.00;99.90;;;;;;5015523;28;20277;-68
2024/03/28 04:08:27;;;;;;;3.70;2.40;;;8.00;99.90;;;;;;5017987;28;20183;-67
2024/03/28 04:10:53;;;;;;;2.57;2.00;;;8.00;99.90;;;;;;5014388;28;20419;-68
2024/03/28 04:13:19;;;;;;;3.30;2.30;;;8.00;99.90;;;;;;5022388;28;20475;-68
2024/03/28 04:15:44;;;;;;;3.10;2.30;;;8.00;99.90;;;;;;5019013;28;20265;-68
2024/03/28 04:18:10;;;;;;;3.17;2.40;;;8.00;99.90;;;;;;5019361;28;20287;-68
2024/03/28 04:20:38;;;;;;;3.00;2.50;;;8.00;99.90;;;;;;5018876;28;20208;-68
2024/03/28 04:23:04;;;;;;;2.80;2.20;;;8.00;99.90;;;;;;5021259;28;20189;-68
2024/03/28 04:25:30;;;;;;;4.00;2.23;;;8.00;99.90;;;;;;5021870;28;22041;-68
2024/03/28 04:27:56;;;;;;;3.80;2.10;;;7.90;99.90;;;;;;5020350;28;20518;-69
2024/03/28 04:30:31;;;;;;;5.23;2.20;;;7.90;99.90;;;;;;5020780;28;20503;-67
2024/03/28 04:32:57;;;;;;;2.80;2.10;;;7.90;99.90;;;;;;5020997;28;20184;-68
2024/03/28 04:35:23;;;;;;;2.60;2.00;;;7.90;99.90;;;;;;5017304;28;20801;-68
2024/03/28 04:37:49;;;;;;;6.77;2.20;;;7.90;99.90;;;;;;5018520;28;20207;-68
2024/03/28 04:40:15;;;;;;;2.60;2.20;;;7.80;99.90;;;;;;5018178;28;20553;-68
2024/03/28 04:42:41;;;;;;;3.47;2.03;;;7.80;99.90;;;;;;5015826;28;20813;-68
2024/03/28 04:45:11;;;;;;;3.57;2.33;;;7.80;99.90;;;;;;5020461;28;20438;-68
2024/03/28 04:47:37;;;;;;;3.33;2.40;;;7.80;99.90;;;;;;5020240;28;20186;-68
2024/03/28 04:50:02;;;;;;;2.50;2.00;;;7.80;99.90;;;;;;5020943;28;20844;-68
2024/03/28 04:52:29;;;;;;;2.10;1.83;;;7.80;99.90;;;;;;5017414;28;20276;-68
2024/03/28 04:54:55;;;;;;;2.40;2.10;;;7.70;99.90;;;;;;5020630;28;20431;-68
2024/03/28 04:57:20;;;;;;;3.67;2.27;;;7.70;99.90;;;;;;5028759;28;20444;-68
2024/03/28 04:59:46;;;;;;;2.33;1.93;;;7.70;99.90;;;;;;5021866;28;20185;-68
2024/03/28 05:02:11;;;;;;;2.60;2.20;;;7.70;99.90;;;;;;5029432;28;20648;-68
2024/03/28 05:04:37;;;;;;;4.80;2.43;;;7.70;99.90;;;;;;5028262;28;20202;-68
2024/03/28 05:07:04;;;;;;;3.80;3.10;;;7.70;99.90;;;;;;5021136;28;20177;-68
2024/03/28 05:09:30;;;;;;;3.47;2.50;;;7.70;99.90;;;;;;5023827;28;20545;-68
2024/03/28 05:11:56;;;;;;;3.70;2.50;;;7.70;99.90;;;;;;5021788;28;20423;-68
2024/03/28 05:14:21;;;;;;;2.83;2.23;;;7.70;99.90;;;;;;5019126;28;20278;-68
2024/03/28 05:16:47;;;;;;;3.20;2.20;;;7.70;99.90;;;;;;5021608;28;20192;-68
2024/03/28 05:19:13;;;;;;;2.77;2.33;;;7.80;99.90;;;;;;5025411;28;20294;-68
2024/03/28 05:21:38;;;;;;;2.80;2.10;;;7.80;99.90;;;;;;5020609;28;20258;-68
2024/03/28 05:24:04;;;;;;;3.53;2.30;;;7.90;99.90;;;;;;5020293;28;20530;-68
2024/03/28 05:26:30;;;;;;;2.30;1.90;;;7.90;99.90;;;;;;5020369;28;20187;-68
2024/03/28 05:28:55;;;;;;;2.70;2.03;;;8.00;99.90;;;;;;5022421;28;20502;-68
2024/03/28 05:31:21;;;;;;;2.73;2.27;;;8.10;99.90;;;;;;5021818;28;20650;-68
2024/03/28 05:33:46;;;;;;;3.27;2.43;;;8.10;99.90;;;;;;5025789;28;20189;-68
2024/03/28 05:36:12;;;;;;;2.70;2.20;;;8.20;99.90;;;;;;5019688;28;20196;-68
2024/03/28 05:38:38;;;;;;;4.63;2.70;;;8.20;99.90;;;;;;5021457;28;20190;-68
2024/03/28 05:41:04;;;;;;;2.43;2.23;;;8.30;99.90;;;;;;5021043;28;20216;-68
2024/03/28 05:43:29;;;;;;;3.50;2.73;;;8.40;99.90;;;;;;5020006;28;20792;-68
2024/03/28 05:45:55;;;;;;;2.90;2.33;;;8.40;99.90;;;;;;5020510;28;20295;-68
2024/03/28 05:48:20;;;;;;;5.20;2.90;;;8.50;99.90;;;;;;5023627;28;20373;-68
2024/03/28 05:50:46;;;;;;;3.60;3.20;;;8.50;99.90;;;;;;5020956;28;20313;-68
2024/03/28 05:53:12;;;;;;;3.83;2.70;;;8.60;99.90;;;;;;5022991;28;20181;-69
2024/03/28 05:55:38;;;;;;;3.63;2.60;;;8.60;99.90;;;;;;5019732;28;20205;-68
2024/03/28 05:58:04;;;;;;;3.97;3.17;;;8.60;99.90;;;;;;5020555;28;20450;-70
2024/03/28 06:00:30;;;;;;;4.33;3.67;;;8.60;99.90;;;;;;5022623;28;20204;-68
2024/03/28 06:02:56;;;;;;;3.30;2.60;;;8.60;99.90;;;;;;5031233;28;20431;-68
2024/03/28 06:05:22;;;;;;;3.37;2.93;;;8.70;99.90;;;;;;5023454;28;20447;-68
2024/03/28 06:07:47;;;;;;;3.73;3.00;;;8.60;99.90;;;;;;5021897;28;20180;-68
2024/03/28 06:10:13;;;;;;;4.10;2.77;;;8.50;99.90;;;;;;5021323;28;20565;-68
2024/03/28 06:12:38;;;;;;;4.40;3.37;;;8.50;99.90;;;;;;5018485;28;20215;-68
2024/03/28 06:15:04;;;;;;;4.13;3.70;;;8.40;99.90;;;;;;5020962;28;20213;-68
2024/03/28 06:17:30;;;;;;;10.03;4.27;;;8.30;99.90;;;;;;5023050;28;20698;-68
2024/03/28 06:19:55;;;;;;;8.57;4.80;;;8.40;99.90;;;;;;5022093;28;20219;-68
2024/03/28 06:22:21;;;;;;;5.80;5.10;;;8.30;99.90;;;;;;5024047;28;20184;-68
2024/03/28 06:24:47;;;;;;;5.57;5.07;;;8.20;99.90;;;;;;5018940;28;20232;-68
2024/03/28 06:27:12;;;;;;;8.50;4.93;;;8.20;99.90;;;;;;5023249;28;20211;-68
2024/03/28 06:29:49;;;;;;;6.93;5.57;;;8.10;99.90;;;;;;5020670;28;20196;-68
2024/03/28 06:32:29;;;;;;;8.10;5.07;;;8.00;99.90;;;;;;5020700;28;21658;-68
2024/03/28 06:34:57;;;;;;;7.67;5.77;;;8.00;99.90;;;;;;5020528;28;20479;-68
2024/03/28 06:37:24;;;;;;;7.53;5.40;;;8.00;99.90;;;;;;5021633;28;20439;-68
2024/03/28 06:39:50;;;;;;;7.10;5.67;;;8.00;99.90;;;;;;5020120;28;20443;-68
2024/03/28 06:42:16;;;;;;;7.27;5.50;;;8.00;99.90;;;;;;5021740;28;20901;-68
2024/03/28 06:44:49;;;;;;;7.13;5.10;;;8.00;99.90;;;;;;5016973;28;20204;-68
2024/03/28 06:47:15;;;;;;;5.77;4.57;;;8.00;99.90;;;;;;5022692;28;20423;-68
2024/03/28 06:49:41;;;;;;;5.80;4.07;;;8.10;99.90;;;;;;5019130;28;20513;-67
2024/03/28 06:52:07;;;;;;;6.33;4.70;;;8.10;99.90;;;;;;5020928;28;21485;-68
2024/03/28 06:54:33;;;;;;;7.50;4.00;;;8.10;99.90;;;;;;5021096;28;20288;-68
2024/03/28 06:56:59;;;;;;;8.00;3.80;;;8.20;99.90;;;;;;5020140;28;20443;-68
2024/03/28 06:59:24;;;;;;;5.63;3.73;;;8.30;99.90;;;;;;5022259;28;20712;-68
2024/03/28 07:01:51;;;;;;;4.40;3.93;;;8.30;99.90;;;;;;5020299;28;20260;-68
2024/03/28 07:04:16;;;;;;;5.57;4.50;;;8.30;99.90;;;;;;5019338;28;20205;-68
2024/03/28 07:06:42;;;;;;;10.50;4.20;;;8.30;99.90;;;;;;5023588;28;20479;-67
2024/03/28 07:09:08;;;;;;;4.63;3.93;;;8.30;99.90;;;;;;5020903;28;20184;-68
2024/03/28 07:11:34;;;;;;;7.23;4.33;;;8.30;99.90;;;;;;5022370;28;20437;-69
2024/03/28 07:14:00;;;;;;;11.13;4.00;;;8.30;99.90;;;;;;5021420;28;20770;-69
2024/03/28 07:16:26;;;;;;;7.70;3.87;;;8.30;99.90;;;;;;5019083;28;20245;-69
2024/03/28 07:18:55;;;;;;;5.30;3.73;;;8.40;99.90;;;;;;5019801;28;20946;-69
2024/03/28 07:21:21;;;;;;;8.57;4.53;;;8.40;99.90;;;;;;5019859;28;20291;-68
2024/03/28 07:23:47;;;;;;;6.97;4.53;;;8.60;99.90;;;;;;5015354;28;20428;-69
2024/03/28 07:26:13;;;;;;;6.93;4.80;;;8.60;99.90;;;;;;5018360;28;20933;-68
2024/03/28 07:28:39;;;;;;;4.40;3.60;;;8.70;99.90;;;;;;5018529;28;20295;-71
2024/03/28 07:31:05;;;;;;;5.53;3.77;;;8.70;99.90;;;;;;5022410;28;20434;-68
2024/03/28 07:33:31;;;;;;;4.00;3.60;;;8.80;99.90;;;;;;5023201;28;20870;-68
2024/03/28 07:35:56;;;;;;;8.03;3.53;;;8.90;99.90;;;;;;5003587;28;20307;-69
2024/03/28 07:38:22;;;;;;;10.23;4.03;;;8.90;99.90;;;;;;5024261;28;20185;-69
2024/03/28 07:40:49;;;;;;;5.47;4.07;;;8.90;99.90;;;;;;5027042;28;20414;-69
2024/03/28 07:43:16;;;;;;;4.70;3.73;;;9.00;99.90;;;;;;5021347;28;20184;-69
2024/03/28 07:45:42;;;;;;;3.70;3.07;;;9.00;99.90;;;;;;5019819;28;20558;-69
2024/03/28 07:48:08;;;;;;;6.20;3.50;;;9.00;99.90;;;;;;5022119;28;20435;-69
2024/03/28 07:50:35;;;;;;;4.43;3.77;;;9.10;99.90;;;;;;5022199;28;20435;-69
2024/03/28 07:53:00;;;;;;;5.10;3.70;;;9.10;99.90;;;;;;5018649;28;20439;-69
2024/03/28 07:55:26;;;;;;;5.90;3.70;;;9.10;99.90;;;;;;5014051;28;20504;-69
2024/03/28 07:57:51;;;;;;;4.73;3.70;;;9.20;99.90;;;;;;5023472;28;20193;-69
2024/03/28 08:00:18;;;;;;;5.60;3.67;;;9.20;99.90;;;;;;5015496;28;20205;-69
2024/03/28 08:02:45;;;;;;;6.93;3.40;;;9.20;99.90;;;;;;5016914;28;20195;-69
2024/03/28 08:05:15;;;;;;;4.93;3.93;;;9.20;99.90;;;;;;5021851;28;20482;-69
2024/03/28 08:07:41;;;;;;;9.20;3.30;;;9.20;99.90;;;;;;5019479;28;20436;-69
2024/03/28 08:10:09;;;;;;;4.40;2.63;;;9.20;99.90;;;;;;5019487;28;21112;-68
2024/03/28 08:12:35;;;;;;;3.73;2.63;;;9.30;99.90;;;;;;5015281;28;20188;-67
2024/03/28 08:15:02;;;;;;;3.20;2.73;;;9.30;99.90;;;;;;5024744;28;20443;-69
2024/03/28 08:17:28;;;;;;;4.10;3.03;;;9.20;99.90;;;;;;5025439;28;20450;-68
2024/03/28 08:19:54;;;;;;;3.13;2.63;;;9.20;99.90;;;;;;5023871;28;20901;-67
2024/03/28 08:22:21;;;;;;;8.20;2.90;;;9.20;99.90;;;;;;5028319;28;20464;-68
2024/03/28 08:24:47;;;;;;;5.27;2.90;;;9.10;99.90;;;;;;5019644;28;20204;-68
2024/03/28 08:27:13;;;;;;;4.87;2.93;;;9.10;99.90;;;;;;5018273;28;20469;-68
2024/03/28 08:29:39;;;;;;;4.70;3.00;;;9.10;99.90;;;;;;5022605;28;20415;-68
2024/03/28 08:32:05;;;;;;;3.60;3.23;;;9.20;99.90;;;;;;5023294;28;20267;-67
2024/03/28 08:34:31;;;;;;;3.60;2.63;;;9.20;99.90;;;;;;5023585;28;20920;-67
2024/03/28 08:36:56;;;;;;;3.33;2.77;;;9.20;99.90;;;;;;5022975;28;21257;-67
2024/03/28 08:39:24;;;;;;;3.53;2.60;;;9.30;99.90;;;;;;5022821;28;20313;-67
2024/03/28 08:41:53;;;;;;;3.50;2.57;;;9.20;99.90;;;;;;5023276;28;20212;-67
2024/03/28 08:44:19;;;;;;;3.60;2.40;;;9.20;99.90;;;;;;5020325;28;20454;-67
2024/03/28 08:46:45;;;;;;;3.03;2.43;;;9.20;99.90;;;;;;5022512;28;20886;-67
2024/03/28 08:49:11;;;;;;;4.47;2.00;;;9.20;99.90;;;;;;5025007;28;20430;-67
2024/03/28 08:51:37;;;;;;;2.83;1.90;;;9.30;99.90;;;;;;5025453;28;20176;-68
2024/03/28 08:54:05;;;;;;;2.37;1.80;;;9.30;99.90;;;;;;5022222;28;20485;-68
2024/03/28 08:56:35;;;;;;;2.63;1.60;;;9.40;99.90;;;;;;5020121;28;20939;-67
2024/03/28 08:59:03;;;;;;;2.20;1.50;;;9.30;99.90;;;;;;5023720;28;20893;-67
2024/03/28 09:01:29;;;;;;;2.00;1.50;;;9.30;99.90;;;;;;5024379;28;20458;-67
2024/03/28 09:03:55;;;;;;;2.33;1.60;;;9.40;99.90;;;;;;5018143;28;20431;-67
2024/03/28 09:06:22;;;;;;;2.70;1.90;;;9.40;99.90;;;;;;5019997;28;20435;-67
2024/03/28 09:08:49;;;;;;;2.00;1.40;;;9.50;99.90;;;;;;5020578;28;20188;-67
2024/03/28 09:11:15;;;;;;;4.07;1.53;;;9.60;99.90;;;;;;5022757;28;20432;-68
2024/03/28 09:13:41;;;;;;;2.00;1.40;;;9.80;99.90;;;;;;5025188;28;20423;-68
2024/03/28 09:16:08;;;;;;;1.90;1.30;;;9.90;99.90;;;;;;5017188;28;20212;-68
2024/03/28 09:18:34;;;;;;;1.93;1.40;;;10.00;99.90;;;;;;5026328;28;20435;-67
2024/03/28 09:21:08;;;;;;;2.00;1.33;;;10.00;99.90;;;;;;5024756;28;20467;-67
2024/03/28 09:23:36;;;;;;;2.10;1.60;;;10.20;99.90;;;;;;5020741;28;21174;-67
2024/03/28 09:26:02;;;;;;;2.40;1.43;;;10.20;99.90;;;;;;5018015;28;21026;-69
2024/03/28 09:28:29;;;;;;;2.10;1.57;;;10.30;99.90;;;;;;5022720;28;20419;-67
2024/03/28 09:30:55;;;;;;;2.40;1.70;;;10.40;99.90;;;;;;5020432;28;20185;-67
2024/03/28 09:33:20;;;;;;;2.57;1.30;;;10.60;99.90;;;;;;5021679;28;20427;-68
2024/03/28 09:35:46;;;;;;;3.40;1.77;;;10.60;99.90;;;;;;5027896;28;20292;-68
2024/03/28 09:38:12;;;;;;;2.93;1.43;;;10.70;99.90;;;;;;5023003;28;20188;-67
2024/03/28 09:40:51;;;;;;;2.20;1.50;;;10.80;99.90;;;;;;5023310;28;20203;-67
2024/03/28 09:43:18;;;;;;;2.70;1.50;;;10.90;99.90;;;;;;5027585;28;20433;-67
2024/03/28 09:45:44;;;;;;;1.87;1.47;;;11.10;99.90;;;;;;5017318;28;20453;-68
2024/03/28 09:48:14;;;;;;;3.90;3.40;;;11.10;99.90;;;;;;5020893;28;20469;-68
2024/03/28 09:50:41;;;;;;;3.47;1.83;;;11.10;99.90;;;;;;5015183;28;21387;-67
2024/03/28 09:53:09;;;;;;;3.03;1.50;;;11.00;99.90;;;;;;5019713;28;20785;-67
2024/03/28 09:55:37;;;;;;;2.27;1.63;;;11.00;99.90;;;;;;5013095;28;20467;-67
2024/03/28 09:58:03;;;;;;;2.10;1.50;;;11.00;99.90;;;;;;5020669;28;20494;-67
2024/03/28 10:00:29;;;;;;;2.30;1.30;;;11.00;99.90;;;;;;5014719;28;20582;-67
2024/03/28 10:03:14;;;;;;;1.97;1.50;;;11.00;99.90;;;;;;5022862;28;20423;-67
2024/03/28 10:05:39;;;;;;;3.80;1.43;;;11.10;99.90;;;;;;5020605;28;20443;-67
2024/03/28 10:08:05;;;;;;;2.57;1.70;;;11.20;99.90;;;;;;5014373;28;20523;-68
2024/03/28 10:10:32;;;;;;;2.63;1.70;;;11.30;99.90;;;;;;5013502;28;20197;-68
2024/03/28 10:13:04;;;;;;;4.27;2.03;;;11.30;99.90;;;;;;5018829;28;21128;-68
2024/03/28 10:15:31;;;;;;;5.83;1.90;;;11.30;99.90;;;;;;5019475;28;20464;-67
2024/03/28 10:18:02;;;;;;;2.37;1.60;;;11.40;99.90;;;;;;5020763;28;20538;-68
2024/03/28 10:20:30;;;;;;;1.90;1.50;;;11.40;99.90;;;;;;5021982;28;20469;-67
2024/03/28 10:22:56;;;;;;;1.90;1.70;;;11.60;99.90;;;;;;5012105;28;20523;-68
2024/03/28 10:25:25;;;;;;;1.90;1.50;;;11.70;99.90;;;;;;5018328;28;20462;-68
2024/03/28 10:27:56;;;;;;;2.30;1.67;;;11.80;99.90;;;;;;5021399;28;20420;-66
2024/03/28 10:30:24;;;;;;;2.00;1.53;;;11.90;99.90;;;;;;5028053;28;20446;-67
2024/03/28 10:33:03;;;;;;;11.63;1.80;;;11.80;99.90;;;;;;5017275;28;20534;-67
2024/03/28 10:35:41;;;;;;;2.57;1.77;;;11.80;99.90;;;;;;5026640;28;20847;-68
2024/03/28 10:38:07;;;;;;;3.00;1.70;;;11.80;99.90;;;;;;5020275;28;20925;-67
2024/03/28 10:40:36;;;;;;;1.80;1.40;;;11.80;99.90;;;;;;5021224;28;20491;-68
2024/03/28 10:43:04;;;;;;;2.77;1.60;;;11.90;99.90;;;;;;5019775;28;20415;-68
2024/03/28 10:45:32;;;;;;;2.17;1.67;;;11.90;99.90;;;;;;5015768;28;20573;-67
2024/03/28 10:47:59;;;;;;;2.10;1.60;;;12.00;99.90;;;;;;5015829;28;20442;-67
2024/03/28 10:50:39;;;;;;;2.10;1.57;;;12.10;99.90;;;;;;5023851;28;20525;-67
2024/03/28 10:53:11;;;;;;;2.30;1.70;;;12.00;99.90;;;;;;5021366;28;20967;-67
2024/03/28 10:55:38;;;;;;;3.10;2.00;;;12.30;99.90;;;;;;5015043;28;20498;-67
2024/03/28 10:58:07;;;;;;;2.17;1.67;;;12.40;99.90;;;;;;5019989;28;20431;-67
2024/03/28 11:00:33;;;;;;;1.90;1.50;;;12.40;99.90;;;;;;5022419;28;20467;-68
2024/03/28 11:02:59;;;;;;;2.97;1.67;;;12.40;99.90;;;;;;5024146;28;20450;-68
2024/03/28 11:05:29;;;;;;;2.33;1.60;;;12.20;99.90;;;;;;5020171;28;20934;-68
2024/03/28 11:07:55;;;;;;;4.23;1.70;;;12.30;99.90;;;;;;5017471;28;20435;-68
2024/03/28 11:10:21;;;;;;;2.00;1.50;;;12.30;99.90;;;;;;5026444;28;20978;-68
2024/03/28 11:12:47;;;;;;;2.87;1.73;;;12.30;99.90;;;;;;5029030;28;20455;-68
2024/03/28 11:15:19;;;;;;;2.10;1.57;;;12.10;99.90;;;;;;5017448;28;20222;-68
2024/03/28 11:17:45;;;;;;;2.30;1.60;;;12.10;99.90;;;;;;5024362;28;20573;-69
2024/03/28 11:20:20;;;;;;;2.20;1.50;;;12.00;99.90;;;;;;5025925;28;20590;-68
2024/03/28 11:22:46;;;;;;;2.43;1.67;;;11.90;99.90;;;;;;5021714;28;20477;-68
2024/03/28 11:25:32;;;;;;;2.00;1.30;;;11.90;99.90;;;;;;5022154;28;20508;-68
2024/03/28 11:28:16;;;;;;;2.43;1.97;;;12.00;99.90;;;;;;5016247;28;20411;-68
2024/03/28 11:30:53;;;;;;;2.50;1.60;;;12.00;99.90;;;;;;5018210;28;20929;-70
2024/03/28 11:33:28;;;;;;;2.17;1.60;;;12.20;99.90;;;;;;5022627;28;20427;-69
2024/03/28 11:36:01;;;;;;;2.57;1.40;;;12.20;99.90;;;;;;5022385;28;20445;-68
2024/03/28 11:38:27;;;;;;;2.40;1.70;;;12.10;99.90;;;;;;5020310;28;20433;-68
2024/03/28 11:40:53;;;;;;;2.47;1.60;;;12.30;99.90;;;;;;5027224;28;20470;-68
2024/03/28 11:43:20;;;;;;;1.80;1.43;;;12.30;99.90;;;;;;5020088;28;20180;-69
2024/03/28 11:45:50;;;;;;;1.80;1.40;;;12.40;99.90;;;;;;5021665;28;20440;-68
2024/03/28 11:48:16;;;;;;;2.10;1.57;;;12.40;99.90;;;;;;5022063;28;20921;-68
2024/03/28 11:50:43;;;;;;;3.13;1.50;;;12.60;99.90;;;;;;5019908;28;20479;-68
2024/03/28 11:53:09;;;;;;;2.27;1.57;;;12.70;99.90;;;;;;5016881;28;20436;-68
2024/03/28 11:55:40;;;;;;;1.87;1.50;;;12.60;99.90;;;;;;5019579;28;20549;-68
2024/03/28 11:58:14;;;;;;;10.23;1.87;;;12.80;99.90;;;;;;5020605;28;20430;-68
2024/03/28 12:00:39;;;;;;;2.37;1.70;;;13.00;99.90;;;;;;5023105;28;20462;-68
2024/03/28 12:03:05;;;;;;;2.67;1.77;;;13.20;99.90;;;;;;5017830;28;20898;-67
2024/03/28 12:05:31;;;;;;;5.60;1.80;;;13.50;99.90;;;;;;5022639;28;20567;-68
2024/03/28 12:07:57;;;;;;;1.80;1.50;;;13.90;99.90;;;;;;5024895;28;20188;-68
2024/03/28 12:10:23;;;;;;;2.40;1.70;;;14.40;99.90;;;;;;5028338;28;20419;-68
2024/03/28 12:12:49;;;;;;;1.90;1.50;;;15.40;99.90;;;;;;5022161;28;20446;-68
2024/03/28 12:15:15;;;;;;;2.17;1.60;;;15.30;99.90;;;;;;5021760;28;20679;-68
2024/03/28 12:17:41;;;;;;;2.80;1.80;;;14.70;99.90;;;;;;5040958;28;20192;-69
2024/03/28 12:20:20;;;;;;;2.20;1.70;;;14.90;99.90;;;;;;5017831;28;20439;-69
2024/03/28 12:22:47;;;;;;;3.67;1.63;;;16.10;99.90;;;;;;5021633;28;20430;-69
2024/03/28 12:25:13;;;;;;;3.07;2.23;;;17.30;99.90;;;;;;5023056;28;20438;-69
2024/03/28 12:27:42;;;;;;;2.20;1.60;;;17.80;99.90;;;;;;5015777;28;20480;-69
2024/03/28 12:30:11;;;;;;;2.87;1.90;;;18.70;99.90;;;;;;5023705;28;20533;-67
2024/03/28 12:32:38;;;;;;;1.90;1.53;;;18.60;97.00;;;;;;5020942;28;20407;-67
2024/03/28 12:35:05;;;;;;;2.30;1.80;;;17.70;94.50;;;;;;5020249;28;20995;-67
2024/03/28 12:37:31;;;;;;;2.50;1.70;;;16.90;96.60;;;;;;5019291;28;20461;-67
2024/03/28 12:40:09;;;;;;;3.13;1.97;;;16.90;98.10;;;;;;5026049;28;20420;-68
2024/03/28 12:42:36;;;;;;;1.90;1.50;;;17.00;95.10;;;;;;5021782;28;20488;-67
2024/03/28 12:45:21;;;;;;;2.23;1.70;;;17.60;94.10;;;;;;5015828;28;20504;-67
2024/03/28 12:47:47;;;;;;;2.30;1.60;;;18.40;89.60;;;;;;5022905;28;20414;-67
2024/03/28 12:50:16;;;;;;;2.20;1.67;;;19.20;85.90;;;;;;5020113;28;20522;-67
2024/03/28 12:52:49;;;;;;;1.87;1.67;;;19.10;81.90;;;;;;5025495;28;20428;-67
2024/03/28 12:55:15;;;;;;;2.00;1.70;;;19.30;83.20;;;;;;5018594;28;20553;-67
2024/03/28 12:57:41;;;;;;;1.93;1.63;;;20.40;84.30;;;;;;5017315;28;20533;-68
2024/03/28 13:00:11;;;;;;;2.67;1.83;;;20.30;78.90;;;;;;5017837;28;20557;-68